Terminal Aerodrome Forecast
Issued by NWS

Home | Current Version | Previous Version | Text Only | Print | Product List | Glossary On
Versions: 1 2 3 4 5 6 7 8 9 10 11 12 13 14 15 16 17 18 19
000
FTUS41 KBTV 010500
TAFMPV
TAF
KMPV 010520Z 0106/0206 VRB04KT 6SM BR SCT005 BKN014
      TEMPO 0106/0110 2SM BR BKN005
     FM011500 00000KT P6SM BKN030
     FM012200 VRB02KT 6SM BR SCT009 BKN015=

USA.gov is the U.S. government's official web portal to all federal, state and local government web resources and services.